sensor_id;sensor_type;location;lat;lon;timestamp;pressure;altitude;pressure_sealevel;temperature;humidity
7052;BME280;3567;52.444;13.556;2024-02-23T00:00:48;98113.97;;;9.73;100.00
7052;BME280;3567;52.444;13.556;2024-02-23T00:03:13;98106.03;;;9.68;100.00
7052;BME280;3567;52.444;13.556;2024-02-23T00:05:38;98106.31;;;9.66;100.00
7052;BME280;3567;52.444;13.556;2024-02-23T00:08:04;98105.53;;;9.66;100.00
7052;BME280;3567;52.444;13.556;2024-02-23T00:10:29;98102.84;;;9.66;100.00
7052;BME280;3567;52.444;13.556;2024-02-23T00:12:55;98102.63;;;9.62;100.00
7052;BME280;3567;52.444;13.556;2024-02-23T00:15:20;98100.53;;;9.59;100.00
7052;BME280;3567;52.444;13.556;2024-02-23T00:17:45;98104.28;;;9.58;100.00
7052;BME280;3567;52.444;13.556;2024-02-23T00:20:11;98096.78;;;9.60;100.00
7052;BME280;3567;52.444;13.556;2024-02-23T00:22:37;98110.94;;;9.61;100.00
7052;BME280;3567;52.444;13.556;2024-02-23T00:25:02;98109.06;;;9.61;100.00
7052;BME280;3567;52.444;13.556;2024-02-23T00:27:28;98093.25;;;9.65;100.00
7052;BME280;3567;52.444;13.556;2024-02-23T00:29:53;98100.41;;;9.69;100.00
7052;BME280;3567;52.444;13.556;2024-02-23T00:32:18;98101.72;;;9.72;100.00
7052;BME280;3567;52.444;13.556;2024-02-23T00:34:44;98103.81;;;9.75;100.00
7052;BME280;3567;52.444;13.556;2024-02-23T00:37:09;98097.09;;;9.78;100.00
7052;BME280;3567;52.444;13.556;2024-02-23T00:39:34;98116.88;;;9.77;100.00
7052;BME280;3567;52.444;13.556;2024-02-23T00:42:01;98103.22;;;9.78;100.00
7052;BME280;3567;52.444;13.556;2024-02-23T00:44:27;98100.84;;;9.77;100.00
7052;BME280;3567;52.444;13.556;2024-02-23T00:46:52;98108.16;;;9.71;100.00
7052;BME280;3567;52.444;13.556;2024-02-23T00:49:17;98114.56;;;9.70;100.00
7052;BME280;3567;52.444;13.556;2024-02-23T00:51:43;98106.31;;;9.66;100.00
7052;BME280;3567;52.444;13.556;2024-02-23T00:54:08;98096.97;;;9.64;100.00
7052;BME280;3567;52.444;13.556;2024-02-23T00:56:34;98108.75;;;9.63;100.00
7052;BME280;3567;52.444;13.556;2024-02-23T00:59:00;98095.94;;;9.65;100.00
7052;BME280;3567;52.444;13.556;2024-02-23T01:01:25;98108.19;;;9.66;100.00
7052;BME280;3567;52.444;13.556;2024-02-23T01:03:51;98109.78;;;9.67;100.00
7052;BME280;3567;52.444;13.556;2024-02-23T01:06:17;98118.31;;;9.69;100.00
7052;BME280;3567;52.444;13.556;2024-02-23T01:08:43;98122.00;;;9.73;100.00
7052;BME280;3567;52.444;13.556;2024-02-23T01:11:08;98131.59;;;9.74;100.00
7052;BME280;3567;52.444;13.556;2024-02-23T01:13:34;98118.78;;;9.76;100.00
7052;BME280;3567;52.444;13.556;2024-02-23T01:15:59;98138.50;;;9.80;100.00
7052;BME280;3567;52.444;13.556;2024-02-23T01:18:24;98148.63;;;9.83;100.00
7052;BME280;3567;52.444;13.556;2024-02-23T01:20:50;98150.19;;;9.84;100.00
7052;BME280;3567;52.444;13.556;2024-02-23T01:23:15;98160.56;;;9.91;100.00
7052;BME280;3567;52.444;13.556;2024-02-23T01:25:40;98170.19;;;9.92;100.00
7052;BME280;3567;52.444;13.556;2024-02-23T01:28:07;98180.03;;;9.96;100.00
7052;BME280;3567;52.444;13.556;2024-02-23T01:30:32;98172.44;;;10.04;100.00
7052;BME280;3567;52.444;13.556;2024-02-23T01:32:58;98179.00;;;10.11;100.00
7052;BME280;3567;52.444;13.556;2024-02-23T01:35:23;98185.59;;;10.19;100.00
7052;BME280;3567;52.444;13.556;2024-02-23T01:37:48;98194.09;;;10.26;100.00
7052;BME280;3567;52.444;13.556;2024-02-23T01:40:14;98197.00;;;10.30;100.00
7052;BME280;3567;52.444;13.556;2024-02-23T01:42:39;98202.06;;;10.31;100.00
7052;BME280;3567;52.444;13.556;2024-02-23T01:45:05;98213.78;;;10.35;100.00
7052;BME280;3567;52.444;13.556;2024-02-23T01:47:30;98212.38;;;10.38;100.00
7052;BME280;3567;52.444;13.556;2024-02-23T01:49:57;98214.81;;;10.39;100.00
7052;BME280;3567;52.444;13.556;2024-02-23T01:52:24;98217.97;;;10.41;100.00
7052;BME280;3567;52.444;13.556;2024-02-23T01:54:50;98229.41;;;10.47;100.00
7052;BME280;3567;52.444;13.556;2024-02-23T01:57:16;98237.94;;;10.49;100.00
7052;BME280;3567;52.444;13.556;2024-02-23T01:59:41;98239.53;;;10.50;100.00
7052;BME280;3567;52.444;13.556;2024-02-23T02:02:07;98246.19;;;10.53;100.00
7052;BME280;3567;52.444;13.556;2024-02-23T02:04:33;98259.56;;;10.53;100.00
7052;BME280;3567;52.444;13.556;2024-02-23T02:06:59;98275.31;;;10.54;100.00
7052;BME280;3567;52.444;13.556;2024-02-23T02:09:26;98291.97;;;10.51;100.00
7052;BME280;3567;52.444;13.556;2024-02-23T02:11:51;98313.91;;;10.53;100.00
7052;BME280;3567;52.444;13.556;2024-02-23T02:14:17;98341.75;;;10.52;100.00
7052;BME280;3567;52.444;13.556;2024-02-23T02:16:43;98347.09;;;10.52;100.00
7052;BME280;3567;52.444;13.556;2024-02-23T02:19:09;98347.66;;;10.49;100.00
7052;BME280;3567;52.444;13.556;2024-02-23T02:21:35;98342.09;;;10.45;100.00
7052;BME280;3567;52.444;13.556;2024-02-23T02:24:01;98371.38;;;10.37;100.00
7052;BME280;3567;52.444;13.556;2024-02-23T02:26:28;98363.63;;;10.35;98.99
7052;BME280;3567;52.444;13.556;2024-02-23T02:28:53;98385.38;;;10.29;96.19
7052;BME280;3567;52.444;13.556;2024-02-23T02:31:18;98415.09;;;10.22;95.10
7052;BME280;3567;52.444;13.556;2024-02-23T02:33:44;98407.94;;;10.17;97.10
7052;BME280;3567;52.444;13.556;2024-02-23T02:36:09;98414.72;;;10.05;93.18
7052;BME280;3567;52.444;13.556;2024-02-23T02:38:36;98417.00;;;9.92;85.47
7052;BME280;3567;52.444;13.556;2024-02-23T02:41:02;98426.88;;;9.92;88.81
7052;BME280;3567;52.444;13.556;2024-02-23T02:43:27;98425.00;;;9.92;91.90
7052;BME280;3567;52.444;13.556;2024-02-23T02:45:53;98429.84;;;9.85;92.05
7052;BME280;3567;52.444;13.556;2024-02-23T02:48:18;98443.31;;;9.80;91.50
7052;BME280;3567;52.444;13.556;2024-02-23T02:50:43;98439.84;;;9.75;91.58
7052;BME280;3567;52.444;13.556;2024-02-23T02:53:12;98429.47;;;9.68;90.56
7052;BME280;3567;52.444;13.556;2024-02-23T02:55:41;98438.84;;;9.65;93.18
7052;BME280;3567;52.444;13.556;2024-02-23T02:58:07;98446.13;;;9.60;93.97
7052;BME280;3567;52.444;13.556;2024-02-23T03:00:32;98457.88;;;9.59;95.81
7052;BME280;3567;52.444;13.556;2024-02-23T03:02:58;98471.28;;;9.54;95.86
7052;BME280;3567;52.444;13.556;2024-02-23T03:05:23;98461.69;;;9.48;87.69
7052;BME280;3567;52.444;13.556;2024-02-23T03:07:48;98465.69;;;9.50;91.03
7052;BME280;3567;52.444;13.556;2024-02-23T03:10:14;98485.22;;;9.45;89.82
7052;BME280;3567;52.444;13.556;2024-02-23T03:12:39;98485.22;;;9.45;90.35
7052;BME280;3567;52.444;13.556;2024-02-23T03:15:05;98488.97;;;9.44;91.07
7052;BME280;3567;52.444;13.556;2024-02-23T03:17:31;98485.75;;;9.42;91.94
7052;BME280;3567;52.444;13.556;2024-02-23T03:19:57;98494.34;;;9.39;89.54
7052;BME280;3567;52.444;13.556;2024-02-23T03:22:23;98493.53;;;9.39;88.95
7052;BME280;3567;52.444;13.556;2024-02-23T03:24:48;98497.28;;;9.38;87.60
7052;BME280;3567;52.444;13.556;2024-02-23T03:27:13;98515.72;;;9.39;92.19
7052;BME280;3567;52.444;13.556;2024-02-23T03:29:39;98513.03;;;9.39;88.88
7052;BME280;3567;52.444;13.556;2024-02-23T03:32:05;98512.47;;;9.42;88.26
7052;BME280;3567;52.444;13.556;2024-02-23T03:34:30;98530.94;;;9.44;87.46
7052;BME280;3567;52.444;13.556;2024-02-23T03:36:55;98520.25;;;9.44;86.65
7052;BME280;3567;52.444;13.556;2024-02-23T03:39:21;98527.97;;;9.45;85.80
7052;BME280;3567;52.444;13.556;2024-02-23T03:41:46;98528.50;;;9.42;83.94
7052;BME280;3567;52.444;13.556;2024-02-23T03:44:12;98534.13;;;9.41;82.85
7052;BME280;3567;52.444;13.556;2024-02-23T03:46:37;98542.44;;;9.39;81.95
7052;BME280;3567;52.444;13.556;2024-02-23T03:49:02;98545.38;;;9.43;82.09
7052;BME280;3567;52.444;13.556;2024-02-23T03:51:28;98542.94;;;9.41;81.35
7052;BME280;3567;52.444;13.556;2024-02-23T03:53:53;98552.56;;;9.37;81.97
7052;BME280;3567;52.444;13.556;2024-02-23T03:56:19;98551.28;;;9.30;80.76
7052;BME280;3567;52.444;13.556;2024-02-23T03:58:44;98556.38;;;9.26;80.59
7052;BME280;3567;52.444;13.556;2024-02-23T04:01:10;98565.22;;;9.22;81.02
7052;BME280;3567;52.444;13.556;2024-02-23T04:03:35;98571.88;;;9.19;79.66
7052;BME280;3567;52.444;13.556;2024-02-23T04:06:00;98566.53;;;9.19;79.08
7052;BME280;3567;52.444;13.556;2024-02-23T04:08:26;98578.03;;;9.19;78.79
7052;BME280;3567;52.444;13.556;2024-02-23T04:10:51;98594.63;;;9.16;81.50
7052;BME280;3567;52.444;13.556;2024-02-23T04:13:17;98589.81;;;9.13;78.37
7052;BME280;3567;52.444;13.556;2024-02-23T04:15:43;98593.53;;;9.17;78.44
7052;BME280;3567;52.444;13.556;2024-02-23T04:18:09;98590.06;;;9.17;77.45
7052;BME280;3567;52.444;13.556;2024-02-23T04:20:34;98619.47;;;9.17;76.97
7052;BME280;3567;52.444;13.556;2024-02-23T04:22:59;98623.44;;;9.14;76.71
7052;BME280;3567;52.444;13.556;2024-02-23T04:25:25;98629.88;;;9.13;76.02
7052;BME280;3567;52.444;13.556;2024-02-23T04:27:51;98646.16;;;9.12;77.40
7052;BME280;3567;52.444;13.556;2024-02-23T04:30:16;98645.09;;;9.08;76.17
7052;BME280;3567;52.444;13.556;2024-02-23T04:32:42;98643.50;;;9.07;76.30
7052;BME280;3567;52.444;13.556;2024-02-23T04:35:07;98657.94;;;9.06;76.13
7052;BME280;3567;52.444;13.556;2024-02-23T04:37:33;98658.47;;;9.03;75.06
7052;BME280;3567;52.444;13.556;2024-02-23T04:39:59;98673.69;;;9.02;75.08
7052;BME280;3567;52.444;13.556;2024-02-23T04:42:24;98679.81;;;8.98;75.81
7052;BME280;3567;52.444;13.556;2024-02-23T04:44:50;98688.38;;;8.95;73.79
7052;BME280;3567;52.444;13.556;2024-02-23T04:47:17;98687.31;;;8.90;74.80
7052;BME280;3567;52.444;13.556;2024-02-23T04:49:43;98694.78;;;8.83;74.50
7052;BME280;3567;52.444;13.556;2024-02-23T04:52:08;98711.06;;;8.82;75.78
7052;BME280;3567;52.444;13.556;2024-02-23T04:54:34;98717.75;;;8.79;75.74
7052;BME280;3567;52.444;13.556;2024-02-23T04:57:00;98738.03;;;8.75;75.52
7052;BME280;3567;52.444;13.556;2024-02-23T04:59:25;98736.94;;;8.71;76.43
7052;BME280;3567;52.444;13.556;2024-02-23T05:01:51;98744.94;;;8.66;77.01
7052;BME280;3567;52.444;13.556;2024-02-23T05:04:16;98750.28;;;8.61;76.73
7052;BME280;3567;52.444;13.556;2024-02-23T05:06:41;98748.16;;;8.58;76.33
7052;BME280;3567;52.444;13.556;2024-02-23T05:09:08;98761.50;;;8.58;77.66
7052;BME280;3567;52.444;13.556;2024-02-23T05:11:34;98767.34;;;8.50;76.57
7052;BME280;3567;52.444;13.556;2024-02-23T05:14:00;98771.06;;;8.44;76.31
7052;BME280;3567;52.444;13.556;2024-02-23T05:16:25;98759.59;;;8.43;75.80
7052;BME280;3567;52.444;13.556;2024-02-23T05:18:50;98772.66;;;8.45;76.26
7052;BME280;3567;52.444;13.556;2024-02-23T05:21:16;98771.06;;;8.44;76.38
7052;BME280;3567;52.444;13.556;2024-02-23T05:23:41;98775.03;;;8.41;74.84
7052;BME280;3567;52.444;13.556;2024-02-23T05:26:07;98770.50;;;8.36;74.40
7052;BME280;3567;52.444;13.556;2024-02-23T05:28:32;98779.78;;;8.34;74.24
7052;BME280;3567;52.444;13.556;2024-02-23T05:30:58;98784.84;;;8.30;73.66
7052;BME280;3567;52.444;13.556;2024-02-23T05:33:23;98814.44;;;8.29;74.22
7052;BME280;3567;52.444;13.556;2024-02-23T05:35:49;98802.69;;;8.25;75.12
7052;BME280;3567;52.444;13.556;2024-02-23T05:38:15;98815.19;;;8.19;74.78
7052;BME280;3567;52.444;13.556;2024-02-23T05:40:40;98830.41;;;8.19;73.55
7052;BME280;3567;52.444;13.556;2024-02-23T05:43:06;98862.13;;;8.15;74.39
7052;BME280;3567;52.444;13.556;2024-02-23T05:45:31;98855.44;;;8.12;73.22
7052;BME280;3567;52.444;13.556;2024-02-23T05:47:56;98856.22;;;8.08;73.85
7052;BME280;3567;52.444;13.556;2024-02-23T05:50:22;98866.56;;;7.99;74.32
7052;BME280;3567;52.444;13.556;2024-02-23T05:52:47;98875.84;;;7.92;73.38
7052;BME280;3567;52.444;13.556;2024-02-23T05:55:12;98879.03;;;7.88;73.94
7052;BME280;3567;52.444;13.556;2024-02-23T05:57:38;98881.66;;;7.83;74.12
7052;BME280;3567;52.444;13.556;2024-02-23T06:00:04;98882.16;;;7.80;73.12
7052;BME280;3567;52.444;13.556;2024-02-23T06:02:30;98881.06;;;7.76;74.02
7052;BME280;3567;52.444;13.556;2024-02-23T06:04:55;98879.16;;;7.72;73.27
7052;BME280;3567;52.444;13.556;2024-02-23T06:07:20;98890.34;;;7.69;72.23
7052;BME280;3567;52.444;13.556;2024-02-23T06:09:52;98902.28;;;7.66;71.97
7052;BME280;3567;52.444;13.556;2024-02-23T06:12:17;98912.16;;;7.66;72.34
7052;BME280;3567;52.444;13.556;2024-02-23T06:14:42;98923.06;;;7.64;72.19
7052;BME280;3567;52.444;13.556;2024-02-23T06:17:08;98916.16;;;7.63;71.75
7052;BME280;3567;52.444;13.556;2024-02-23T06:19:33;98931.56;;;7.61;72.28
7052;BME280;3567;52.444;13.556;2024-02-23T06:21:59;98942.75;;;7.58;71.64
7052;BME280;3567;52.444;13.556;2024-02-23T06:24:24;98965.66;;;7.59;72.32
7052;BME280;3567;52.444;13.556;2024-02-23T06:26:49;98970.44;;;7.57;71.92
7052;BME280;3567;52.444;13.556;2024-02-23T06:29:16;98965.88;;;7.52;71.22
7052;BME280;3567;52.444;13.556;2024-02-23T06:31:41;98966.69;;;7.53;71.71
7052;BME280;3567;52.444;13.556;2024-02-23T06:34:08;98974.09;;;7.51;71.59
7052;BME280;3567;52.444;13.556;2024-02-23T06:36:33;98983.41;;;7.48;70.90
7052;BME280;3567;52.444;13.556;2024-02-23T06:38:58;98990.59;;;7.48;71.53
7052;BME280;3567;52.444;13.556;2024-02-23T06:41:24;99009.50;;;7.46;71.70
7052;BME280;3567;52.444;13.556;2024-02-23T06:43:49;99004.41;;;7.45;72.13
7052;BME280;3567;52.444;13.556;2024-02-23T06:46:18;99011.91;;;7.48;72.43
7052;BME280;3567;52.444;13.556;2024-02-23T06:48:45;99005.22;;;7.45;73.23
7052;BME280;3567;52.444;13.556;2024-02-23T06:51:11;99020.41;;;7.45;73.55
7052;BME280;3567;52.444;13.556;2024-02-23T06:53:36;99025.44;;;7.41;74.21
7052;BME280;3567;52.444;13.556;2024-02-23T06:56:03;99035.78;;;7.38;73.54
7052;BME280;3567;52.444;13.556;2024-02-23T06:58:28;99028.25;;;7.34;74.43
7052;BME280;3567;52.444;13.556;2024-02-23T07:00:54;99042.09;;;7.31;75.22
7052;BME280;3567;52.444;13.556;2024-02-23T07:03:19;99057.75;;;7.28;75.28
7052;BME280;3567;52.444;13.556;2024-02-23T07:05:45;99062.28;;;7.27;74.67
7052;BME280;3567;52.444;13.556;2024-02-23T07:08:11;99040.72;;;7.29;74.82
7052;BME280;3567;52.444;13.556;2024-02-23T07:10:37;99045.56;;;7.32;75.12
7052;BME280;3567;52.444;13.556;2024-02-23T07:13:02;99067.19;;;7.35;75.69
7052;BME280;3567;52.444;13.556;2024-02-23T07:15:28;99075.25;;;7.41;75.01
7052;BME280;3567;52.444;13.556;2024-02-23T07:17:54;99076.91;;;7.47;75.85
7052;BME280;3567;52.444;13.556;2024-02-23T07:20:20;99070.00;;;7.51;75.61
7052;BME280;3567;52.444;13.556;2024-02-23T07:22:46;99065.81;;;7.55;76.05
7052;BME280;3567;52.444;13.556;2024-02-23T07:25:15;99080.50;;;7.57;75.75
7052;BME280;3567;52.444;13.556;2024-02-23T07:27:41;99077.59;;;7.59;75.61
7052;BME280;3567;52.444;13.556;2024-02-23T07:30:07;99084.03;;;7.63;75.92
7052;BME280;3567;52.444;13.556;2024-02-23T07:32:32;99078.19;;;7.66;76.06
7052;BME280;3567;52.444;13.556;2024-02-23T07:34:58;99079.28;;;7.70;76.82
7052;BME280;3567;52.444;13.556;2024-02-23T07:37:26;99086.22;;;7.71;76.91
7052;BME280;3567;52.444;13.556;2024-02-23T07:39:51;99087.56;;;7.69;76.86
7052;BME280;3567;52.444;13.556;2024-02-23T07:42:16;99089.91;;;7.65;76.64
7052;BME280;3567;52.444;13.556;2024-02-23T07:44:44;99091.75;;;7.65;76.34
7052;BME280;3567;52.444;13.556;2024-02-23T07:47:09;99086.13;;;7.61;77.13
7052;BME280;3567;52.444;13.556;2024-02-23T07:49:35;99092.25;;;7.61;77.46
7052;BME280;3567;52.444;13.556;2024-02-23T07:52:00;99105.03;;;7.59;77.34
7052;BME280;3567;52.444;13.556;2024-02-23T07:54:25;99114.41;;;7.62;77.57
7052;BME280;3567;52.444;13.556;2024-02-23T07:56:51;99116.56;;;7.65;78.42
7052;BME280;3567;52.444;13.556;2024-02-23T07:59:16;99124.53;;;7.65;77.66
7052;BME280;3567;52.444;13.556;2024-02-23T08:01:43;99142.94;;;7.67;78.09
7052;BME280;3567;52.444;13.556;2024-02-23T08:04:08;99154.44;;;7.67;77.79
7052;BME280;3567;52.444;13.556;2024-02-23T08:06:33;99144.31;;;7.69;77.95
7052;BME280;3567;52.444;13.556;2024-02-23T08:08:59;99140.91;;;7.74;77.66
7052;BME280;3567;52.444;13.556;2024-02-23T08:11:24;99150.31;;;7.81;77.53
7052;BME280;3567;52.444;13.556;2024-02-23T08:13:50;99153.38;;;7.90;78.40
7052;BME280;3567;52.444;13.556;2024-02-23T08:16:16;99156.69;;;8.02;78.14
7052;BME280;3567;52.444;13.556;2024-02-23T08:18:43;99160.78;;;8.10;77.52
7052;BME280;3567;52.444;13.556;2024-02-23T08:21:09;99161.34;;;8.12;76.58
7052;BME280;3567;52.444;13.556;2024-02-23T08:23:36;99166.19;;;8.15;76.00
7052;BME280;3567;52.444;13.556;2024-02-23T08:26:01;99172.09;;;8.22;75.32
7052;BME280;3567;52.444;13.556;2024-02-23T08:28:26;99174.84;;;8.27;74.64
7052;BME280;3567;52.444;13.556;2024-02-23T08:30:52;99183.94;;;8.31;74.57
7052;BME280;3567;52.444;13.556;2024-02-23T08:33:18;99196.78;;;8.34;74.65
7052;BME280;3567;52.444;13.556;2024-02-23T08:35:43;99198.91;;;8.32;73.56
7052;BME280;3567;52.444;13.556;2024-02-23T08:38:09;99193.78;;;8.31;73.81
7052;BME280;3567;52.444;13.556;2024-02-23T08:40:34;99186.63;;;8.31;73.12
7052;BME280;3567;52.444;13.556;2024-02-23T08:43:00;99185.03;;;8.35;74.19
7052;BME280;3567;52.444;13.556;2024-02-23T08:45:26;99191.25;;;8.41;73.80
7052;BME280;3567;52.444;13.556;2024-02-23T08:47:51;99182.50;;;8.46;74.37
7052;BME280;3567;52.444;13.556;2024-02-23T08:50:16;99191.13;;;8.53;74.62
7052;BME280;3567;52.444;13.556;2024-02-23T08:52:42;99205.59;;;8.62;74.41
7052;BME280;3567;52.444;13.556;2024-02-23T08:55:07;99205.19;;;8.75;74.11
7052;BME280;3567;52.444;13.556;2024-02-23T08:57:33;99215.75;;;8.92;74.20
7052;BME280;3567;52.444;13.556;2024-02-23T08:59:58;99217.78;;;9.12;73.87
7052;BME280;3567;52.444;13.556;2024-02-23T09:02:24;99214.16;;;9.28;72.75
7052;BME280;3567;52.444;13.556;2024-02-23T09:04:49;99214.69;;;9.30;72.92
7052;BME280;3567;52.444;13.556;2024-02-23T09:07:15;99218.41;;;9.24;73.21
7052;BME280;3567;52.444;13.556;2024-02-23T09:09:40;99222.91;;;9.18;73.71
7052;BME280;3567;52.444;13.556;2024-02-23T09:12:06;99211.91;;;9.15;74.12
7052;BME280;3567;52.444;13.556;2024-02-23T09:14:36;99218.63;;;9.17;74.59
7052;BME280;3567;52.444;13.556;2024-02-23T09:17:04;99226.41;;;9.24;75.10
7052;BME280;3567;52.444;13.556;2024-02-23T09:19:29;99238.22;;;9.28;74.83
7052;BME280;3567;52.444;13.556;2024-02-23T09:21:55;99239.31;;;9.37;75.24
7052;BME280;3567;52.444;13.556;2024-02-23T09:24:28;99236.22;;;9.51;75.54
7052;BME280;3567;52.444;13.556;2024-02-23T09:26:56;99240.09;;;9.70;75.12
7052;BME280;3567;52.444;13.556;2024-02-23T09:29:22;99239.03;;;9.76;72.33
7052;BME280;3567;52.444;13.556;2024-02-23T09:31:48;99225.47;;;9.88;70.35
7052;BME280;3567;52.444;13.556;2024-02-23T09:34:13;99232.22;;;10.06;69.84
7052;BME280;3567;52.444;13.556;2024-02-23T09:36:39;99232.25;;;10.16;68.14
7052;BME280;3567;52.444;13.556;2024-02-23T09:39:04;99224.84;;;10.28;68.06
7052;BME280;3567;52.444;13.556;2024-02-23T09:41:30;99227.00;;;10.41;66.01
7052;BME280;3567;52.444;13.556;2024-02-23T09:44:00;99228.66;;;10.58;64.75
7052;BME280;3567;52.444;13.556;2024-02-23T09:46:26;99236.16;;;10.81;65.52
7052;BME280;3567;52.444;13.556;2024-02-23T09:48:52;99251.19;;;10.82;65.24
7052;BME280;3567;52.444;13.556;2024-02-23T09:51:18;99229.44;;;10.58;61.17
7052;BME280;3567;52.444;13.556;2024-02-23T09:53:46;99247.34;;;10.42;62.02
7052;BME280;3567;52.444;13.556;2024-02-23T09:56:18;99249.78;;;10.44;62.19
7052;BME280;3567;52.444;13.556;2024-02-23T09:58:47;99258.63;;;10.60;62.56
7052;BME280;3567;52.444;13.556;2024-02-23T10:01:21;99251.97;;;10.72;63.66
7052;BME280;3567;52.444;13.556;2024-02-23T10:03:51;99265.41;;;10.98;64.15
7052;BME280;3567;52.444;13.556;2024-02-23T10:06:16;99262.97;;;11.07;63.37
7052;BME280;3567;52.444;13.556;2024-02-23T10:08:42;99261.09;;;10.97;63.47
7052;BME280;3567;52.444;13.556;2024-02-23T10:11:07;99244.22;;;10.86;62.88
7052;BME280;3567;52.444;13.556;2024-02-23T10:13:33;99242.38;;;10.87;63.17
7052;BME280;3567;52.444;13.556;2024-02-23T10:15:58;99260.06;;;10.98;64.29
7052;BME280;3567;52.444;13.556;2024-02-23T10:18:24;99266.75;;;11.06;64.78
7052;BME280;3567;52.444;13.556;2024-02-23T10:20:49;99272.38;;;11.14;64.55
7052;BME280;3567;52.444;13.556;2024-02-23T10:23:15;99273.19;;;11.20;65.10
7052;BME280;3567;52.444;13.556;2024-02-23T10:25:41;99277.19;;;11.33;63.95
7052;BME280;3567;52.444;13.556;2024-02-23T10:28:06;99270.22;;;11.32;64.14
7052;BME280;3567;52.444;13.556;2024-02-23T10:30:33;99265.16;;;11.25;62.87
7052;BME280;3567;52.444;13.556;2024-02-23T10:32:58;99272.09;;;11.41;63.21
7052;BME280;3567;52.444;13.556;2024-02-23T10:35:25;99260.81;;;11.34;61.13
7052;BME280;3567;52.444;13.556;2024-02-23T10:37:52;99266.75;;;11.41;62.08
7052;BME280;3567;52.444;13.556;2024-02-23T10:40:19;99267.25;;;11.38;60.90
7052;BME280;3567;52.444;13.556;2024-02-23T10:42:46;99261.38;;;11.41;62.46
7052;BME280;3567;52.444;13.556;2024-02-23T10:45:21;99271.00;;;11.68;61.79
7052;BME280;3567;52.444;13.556;2024-02-23T10:47:50;99263.19;;;11.82;61.35
7052;BME280;3567;52.444;13.556;2024-02-23T10:50:17;99251.66;;;11.71;58.44
7052;BME280;3567;52.444;13.556;2024-02-23T10:52:45;99272.03;;;11.77;59.45
7052;BME280;3567;52.444;13.556;2024-02-23T10:55:12;99265.06;;;11.76;58.83
7052;BME280;3567;52.444;13.556;2024-02-23T10:57:37;99272.06;;;11.72;59.00
7052;BME280;3567;52.444;13.556;2024-02-23T11:00:04;99277.66;;;11.80;59.45
7052;BME280;3567;52.444;13.556;2024-02-23T11:02:37;99270.13;;;11.93;59.31
7052;BME280;3567;52.444;13.556;2024-02-23T11:05:06;99265.50;;;12.19;59.21
7052;BME280;3567;52.444;13.556;2024-02-23T11:07:38;99266.56;;;12.18;57.66
7052;BME280;3567;52.444;13.556;2024-02-23T11:10:04;99269.56;;;12.11;56.45
7052;BME280;3567;52.444;13.556;2024-02-23T11:12:30;99254.88;;;11.93;53.88
7052;BME280;3567;52.444;13.556;2024-02-23T11:15:00;99254.59;;;11.90;55.97
7052;BME280;3567;52.444;13.556;2024-02-23T11:17:26;99259.91;;;12.10;55.57
7052;BME280;3567;52.444;13.556;2024-02-23T11:20:03;99248.28;;;12.25;54.78
7052;BME280;3567;52.444;13.556;2024-02-23T11:22:34;99259.94;;;12.54;55.01
7052;BME280;3567;52.444;13.556;2024-02-23T11:25:09;99253.44;;;12.66;53.74
7052;BME280;3567;52.444;13.556;2024-02-23T11:27:36;99242.25;;;12.48;53.54
7052;BME280;3567;52.444;13.556;2024-02-23T11:30:05;99249.34;;;12.29;54.17
7052;BME280;3567;52.444;13.556;2024-02-23T11:32:46;99260.09;;;12.24;54.56
7052;BME280;3567;52.444;13.556;2024-02-23T11:35:16;99261.91;;;12.39;54.69
7052;BME280;3567;52.444;13.556;2024-02-23T11:37:51;99259.56;;;12.27;54.08
7052;BME280;3567;52.444;13.556;2024-02-23T11:40:22;99263.66;;;12.09;53.97
7052;BME280;3567;52.444;13.556;2024-02-23T11:42:48;99257.78;;;12.02;54.78
7052;BME280;3567;52.444;13.556;2024-02-23T11:45:13;99265.00;;;12.06;55.22
7052;BME280;3567;52.444;13.556;2024-02-23T11:47:39;99271.50;;;11.95;54.80
7052;BME280;3567;52.444;13.556;2024-02-23T11:50:14;99283.00;;;12.01;54.75
7052;BME280;3567;52.444;13.556;2024-02-23T11:52:45;99288.09;;;11.97;55.21
7052;BME280;3567;52.444;13.556;2024-02-23T11:55:10;99294.03;;;11.79;55.47
7052;BME280;3567;52.444;13.556;2024-02-23T11:57:36;99302.38;;;11.62;55.49
7052;BME280;3567;52.444;13.556;2024-02-23T12:00:04;99310.72;;;11.40;56.13
7052;BME280;3567;52.444;13.556;2024-02-23T12:02:31;99307.47;;;11.18;56.61
7052;BME280;3567;52.444;13.556;2024-02-23T12:04:57;99299.16;;;10.99;57.06
7052;BME280;3567;52.444;13.556;2024-02-23T12:07:22;99305.31;;;11.05;57.54
7052;BME280;3567;52.444;13.556;2024-02-23T12:09:48;99306.41;;;11.04;56.73
7052;BME280;3567;52.444;13.556;2024-02-23T12:12:13;99317.34;;;10.97;57.28
7052;BME280;3567;52.444;13.556;2024-02-23T12:14:39;99306.91;;;10.85;56.99
7052;BME280;3567;52.444;13.556;2024-02-23T12:17:05;99310.59;;;10.69;57.55
7052;BME280;3567;52.444;13.556;2024-02-23T12:19:37;99311.66;;;10.63;57.92
7052;BME280;3567;52.444;13.556;2024-02-23T12:22:04;99317.56;;;10.65;58.17
7052;BME280;3567;52.444;13.556;2024-02-23T12:24:29;99323.97;;;10.59;57.93
7052;BME280;3567;52.444;13.556;2024-02-23T12:26:55;99334.16;;;10.57;58.68
7052;BME280;3567;52.444;13.556;2024-02-23T12:29:21;99326.66;;;10.59;58.16
7052;BME280;3567;52.444;13.556;2024-02-23T12:31:46;99327.22;;;10.66;58.57
7052;BME280;3567;52.444;13.556;2024-02-23T12:34:12;99326.41;;;10.70;58.74
7052;BME280;3567;52.444;13.556;2024-02-23T12:36:39;99332.28;;;10.62;58.09
7052;BME280;3567;52.444;13.556;2024-02-23T12:39:04;99344.31;;;10.55;58.14
7052;BME280;3567;52.444;13.556;2024-02-23T12:41:29;99352.88;;;10.52;58.36
7052;BME280;3567;52.444;13.556;2024-02-23T12:43:55;99346.97;;;10.44;58.51
7052;BME280;3567;52.444;13.556;2024-02-23T12:46:20;99356.06;;;10.54;58.86
7052;BME280;3567;52.444;13.556;2024-02-23T12:48:45;99356.38;;;10.62;58.06
7052;BME280;3567;52.444;13.556;2024-02-23T12:51:11;99356.13;;;10.64;58.04
7052;BME280;3567;52.444;13.556;2024-02-23T12:53:39;99372.72;;;10.61;58.17
7052;BME280;3567;52.444;13.556;2024-02-23T12:56:12;99367.09;;;10.57;58.49
7052;BME280;3567;52.444;13.556;2024-02-23T12:58:39;99370.84;;;10.61;58.47
7052;BME280;3567;52.444;13.556;2024-02-23T13:01:05;99370.28;;;10.59;58.43
7052;BME280;3567;52.444;13.556;2024-02-23T13:03:32;99369.41;;;10.43;59.13
7052;BME280;3567;52.444;13.556;2024-02-23T13:05:57;99359.69;;;10.27;58.92
7052;BME280;3567;52.444;13.556;2024-02-23T13:08:24;99375.13;;;10.15;59.32